createdAt,value
2022-12-03T00:01:48.194Z,33.67
2022-12-03T00:04:14.935Z,36.88
2022-12-03T00:06:41.774Z,49.13
2022-12-03T00:09:08.514Z,50.33
2022-12-03T00:11:35.362Z,57.42
2022-12-03T00:14:02.113Z,43.53
2022-12-03T00:16:29.058Z,59.03
2022-12-03T00:18:55.890Z,46.92
2022-12-03T00:21:24.609Z,57.17
2022-12-03T00:23:51.785Z,57.13
2022-12-03T00:26:18.613Z,56.10
2022-12-03T00:28:45.358Z,55.05
2022-12-03T00:31:13.486Z,46.83
2022-12-03T00:33:40.249Z,50.78
2022-12-03T00:36:07.483Z,49.45
2022-12-03T00:38:34.320Z,43.88
2022-12-03T00:41:01.152Z,41.80
2022-12-03T00:43:27.920Z,42.35
2022-12-03T00:45:54.776Z,33.35
2022-12-03T00:48:21.572Z,42.47
2022-12-03T00:50:48.419Z,42.63
2022-12-03T00:53:15.148Z,33.85
2022-12-03T00:55:41.935Z,34.13
2022-12-03T00:58:09.532Z,26.67
2022-12-03T01:00:36.858Z,27.48
2022-12-03T01:03:04.497Z,26.40
2022-12-03T01:05:31.393Z,31.00
2022-12-03T01:07:58.145Z,25.33
2022-12-03T01:10:24.975Z,25.40
2022-12-03T01:12:51.730Z,21.45
2022-12-03T01:15:18.580Z,17.10
2022-12-03T01:17:45.328Z,13.40
2022-12-03T01:20:12.688Z,14.45
2022-12-03T01:22:39.529Z,14.57
2022-12-03T01:25:06.787Z,15.88
2022-12-03T01:27:33.505Z,17.23
2022-12-03T01:30:00.292Z,11.95
2022-12-03T01:32:27.095Z,10.60
2022-12-03T01:34:56.050Z,11.98
2022-12-03T01:37:25.272Z,21.25
2022-12-03T01:39:52.184Z,14.68
2022-12-03T01:42:23.633Z,13.90
2022-12-03T01:44:56.122Z,12.68
2022-12-03T01:47:33.172Z,10.85
2022-12-03T01:50:04.817Z,10.63
2022-12-03T01:52:37.052Z,9.48
2022-12-03T01:55:08.044Z,11.45
2022-12-03T01:57:46.025Z,15.95
2022-12-03T02:00:15.346Z,16.98
2022-12-03T02:02:42.570Z,16.25
2022-12-03T02:05:18.123Z,12.15
2022-12-03T02:07:45.185Z,10.85
2022-12-03T02:10:14.137Z,9.65
2022-12-03T02:12:47.734Z,8.90
2022-12-03T02:15:15.050Z,11.82
2022-12-03T02:17:43.035Z,8.50
2022-12-03T02:20:11.646Z,12.13
2022-12-03T02:22:47.967Z,12.15
2022-12-03T02:25:18.303Z,11.82
2022-12-03T02:27:45.777Z,9.38
2022-12-03T02:30:17.334Z,9.82
2022-12-03T02:32:44.370Z,9.50
2022-12-03T02:35:20.540Z,6.63
2022-12-03T02:37:50.893Z,6.50
2022-12-03T02:40:24.848Z,8.15
2022-12-03T02:42:55.529Z,7.22
2022-12-03T02:45:36.096Z,5.85
2022-12-03T02:48:08.667Z,5.80
2022-12-03T02:50:42.486Z,7.13
2022-12-03T02:53:17.393Z,7.18
2022-12-03T02:55:44.936Z,11.85
2022-12-03T02:58:12.213Z,15.52
2022-12-03T03:00:39.860Z,23.27
2022-12-03T03:03:08.612Z,25.23
2022-12-03T03:05:38.581Z,22.63
2022-12-03T03:08:08.132Z,20.50
2022-12-03T03:10:37.321Z,18.15
2022-12-03T03:13:08.957Z,17.25
2022-12-03T03:15:37.325Z,19.45
2022-12-03T03:18:05.623Z,19.60
2022-12-03T03:20:32.469Z,18.98
2022-12-03T03:23:12.899Z,16.75
2022-12-03T03:25:42.470Z,17.15
2022-12-03T03:28:09.922Z,14.63
2022-12-03T03:30:52.185Z,11.13
2022-12-03T03:33:19.182Z,8.65
2022-12-03T03:35:48.116Z,10.38
2022-12-03T03:38:18.886Z,9.07
2022-12-03T03:40:48.165Z,8.93
2022-12-03T03:43:15.028Z,6.85
2022-12-03T03:45:42.775Z,6.10
2022-12-03T03:48:10.489Z,6.53
2022-12-03T03:50:37.611Z,8.65
2022-12-03T03:53:05.812Z,6.97
2022-12-03T03:55:33.754Z,6.63
2022-12-03T03:58:01.028Z,5.53
2022-12-03T04:00:27.995Z,7.13
2022-12-03T04:02:54.798Z,5.68
2022-12-03T04:05:23.846Z,5.30
2022-12-03T04:07:51.086Z,7.80
2022-12-03T04:10:36.343Z,8.10
2022-12-03T04:13:03.904Z,6.57
2022-12-03T04:15:30.920Z,7.05
2022-12-03T04:18:17.669Z,5.32
2022-12-03T04:20:44.552Z,6.57
2022-12-03T04:23:11.350Z,4.72
2022-12-03T04:25:56.867Z,6.25
2022-12-03T04:28:42.391Z,6.80
2022-12-03T04:31:27.739Z,6.93
2022-12-03T04:34:13.260Z,6.50
2022-12-03T04:36:40.078Z,5.63
2022-12-03T04:39:06.826Z,5.43
2022-12-03T04:41:33.651Z,5.90
2022-12-03T04:44:18.984Z,7.13
2022-12-03T04:46:45.779Z,5.72
2022-12-03T04:49:12.775Z,7.68
2022-12-03T04:51:39.637Z,9.48
2022-12-03T04:54:06.446Z,8.80
2022-12-03T04:56:33.321Z,8.63
2022-12-03T04:59:00.078Z,8.18
2022-12-03T05:01:27.047Z,8.95
2022-12-03T05:03:53.756Z,6.93
2022-12-03T05:06:20.803Z,10.32
2022-12-03T05:08:47.643Z,10.85
2022-12-03T05:11:14.698Z,12.18
2022-12-03T05:13:43.093Z,12.40
2022-12-03T05:16:10.334Z,11.07
2022-12-03T05:18:37.112Z,12.85
2022-12-03T05:21:04.090Z,10.18
2022-12-03T05:23:32.158Z,13.05
2022-12-03T05:25:58.954Z,10.32
2022-12-03T05:28:25.757Z,11.63
2022-12-03T05:30:52.876Z,13.60
2022-12-03T05:33:20.509Z,11.80
2022-12-03T05:35:47.703Z,14.60
2022-12-03T05:38:14.388Z,17.65
2022-12-03T05:40:41.276Z,15.07
2022-12-03T05:43:08.360Z,20.92
2022-12-03T05:45:37.408Z,13.15
2022-12-03T05:48:06.555Z,17.30
2022-12-03T05:50:35.514Z,15.50
2022-12-03T05:53:15.275Z,15.75
2022-12-03T05:55:42.221Z,15.13
2022-12-03T05:58:09.589Z,16.30
2022-12-03T06:00:42.449Z,14.32
2022-12-03T06:03:10.746Z,12.35
2022-12-03T06:05:37.855Z,10.48
2022-12-03T06:08:05.078Z,11.05
2022-12-03T06:10:32.623Z,11.98
2022-12-03T06:12:59.561Z,6.60
2022-12-03T06:15:26.309Z,9.32
2022-12-03T06:17:53.684Z,8.05
2022-12-03T06:20:20.811Z,9.60
2022-12-03T06:22:48.224Z,6.90
2022-12-03T06:25:15.678Z,7.20
2022-12-03T06:27:42.643Z,5.55
2022-12-03T06:30:12.812Z,4.90
2022-12-03T06:32:39.568Z,9.60
2022-12-03T06:35:06.783Z,6.63
2022-12-03T06:37:33.652Z,5.35
2022-12-03T06:40:00.384Z,5.72
2022-12-03T06:42:27.377Z,7.68
2022-12-03T06:44:54.314Z,7.80
2022-12-03T06:47:21.402Z,8.27
2022-12-03T06:49:48.134Z,6.05
2022-12-03T06:52:15.036Z,6.90
2022-12-03T06:54:41.961Z,6.95
2022-12-03T06:57:08.738Z,4.22
2022-12-03T06:59:37.607Z,4.22
2022-12-03T07:02:05.387Z,4.90
2022-12-03T07:04:32.153Z,6.15
2022-12-03T07:06:58.962Z,4.35
2022-12-03T07:09:25.770Z,4.30
2022-12-03T07:11:52.676Z,2.50
2022-12-03T07:14:20.959Z,2.53
2022-12-03T07:16:47.862Z,1.60
2022-12-03T07:19:14.733Z,2.20
2022-12-03T07:21:41.831Z,2.58
2022-12-03T07:24:09.149Z,3.05
2022-12-03T07:26:36.242Z,2.55
2022-12-03T07:29:03.503Z,4.18
2022-12-03T07:31:30.660Z,4.68
2022-12-03T07:33:57.453Z,6.00
2022-12-03T07:36:24.232Z,7.57
2022-12-03T07:38:51.015Z,5.75
2022-12-03T07:41:17.840Z,7.07
2022-12-03T07:43:45.307Z,5.90
2022-12-03T07:46:12.260Z,6.80
2022-12-03T07:48:39.098Z,6.95
2022-12-03T07:51:06.056Z,7.30
2022-12-03T07:53:33.009Z,5.75
2022-12-03T07:55:59.881Z,7.30
2022-12-03T07:58:26.606Z,5.97
2022-12-03T08:00:53.726Z,5.68
2022-12-03T08:03:20.501Z,6.70
2022-12-03T08:05:47.404Z,5.20
2022-12-03T08:08:14.377Z,4.95
2022-12-03T08:10:41.226Z,5.50
2022-12-03T08:13:13.852Z,6.55
2022-12-03T08:15:40.765Z,9.23
2022-12-03T08:18:19.219Z,10.35
2022-12-03T08:20:48.450Z,10.60
2022-12-03T08:23:23.402Z,11.30
2022-12-03T08:25:51.931Z,11.30
2022-12-03T08:28:21.328Z,10.02
2022-12-03T08:31:05.864Z,10.73
2022-12-03T08:33:35.597Z,10.65
2022-12-03T08:36:29.271Z,12.27
2022-12-03T08:38:59.609Z,9.00
2022-12-03T08:41:45.299Z,10.13
2022-12-03T08:44:29.121Z,11.98
2022-12-03T08:47:09.564Z,10.43
2022-12-03T08:49:37.522Z,6.22
2022-12-03T08:52:15.075Z,5.40
2022-12-03T08:54:43.246Z,6.18
2022-12-03T08:57:36.150Z,5.00
2022-12-03T09:00:21.654Z,7.32
2022-12-03T09:02:51.627Z,5.78
2022-12-03T09:05:30.912Z,11.10
2022-12-03T09:07:59.423Z,14.20
2022-12-03T09:10:26.285Z,10.40
2022-12-03T09:12:53.240Z,12.82
2022-12-03T09:15:20.167Z,12.60
2022-12-03T09:17:49.905Z,22.50
2022-12-03T09:20:16.905Z,24.38
2022-12-03T09:22:43.727Z,18.45
2022-12-03T09:25:10.602Z,17.63
2022-12-03T09:27:37.355Z,15.60
2022-12-03T09:30:05.455Z,13.07
2022-12-03T09:32:32.368Z,11.52
2022-12-03T09:34:59.251Z,10.13
2022-12-03T09:37:26.042Z,11.10
2022-12-03T09:39:52.875Z,8.48
2022-12-03T09:42:19.621Z,5.40
2022-12-03T09:44:46.556Z,8.18
2022-12-03T09:47:13.510Z,6.60
2022-12-03T09:49:40.756Z,7.07
2022-12-03T09:52:07.955Z,7.97
2022-12-03T09:54:35.416Z,8.93
2022-12-03T09:57:04.278Z,16.45
2022-12-03T09:59:33.536Z,8.35
2022-12-03T10:02:01.584Z,7.53
2022-12-03T10:04:29.821Z,9.35
2022-12-03T10:06:58.337Z,11.18
2022-12-03T10:09:28.276Z,7.60
2022-12-03T10:11:57.442Z,6.30
2022-12-03T10:14:24.533Z,10.30
2022-12-03T10:16:51.604Z,12.63
2022-12-03T10:19:39.696Z,20.58
2022-12-03T10:22:06.585Z,13.13
2022-12-03T10:24:35.487Z,12.50
2022-12-03T10:27:05.282Z,12.70
2022-12-03T10:29:34.957Z,55.50
2022-12-03T10:32:10.451Z,69.43
2022-12-03T10:34:42.055Z,27.52
2022-12-03T10:37:17.991Z,25.48
2022-12-03T10:40:21.372Z,17.35
2022-12-03T10:42:48.140Z,16.85
2022-12-03T10:45:20.592Z,17.70
2022-12-03T10:48:21.428Z,20.05
2022-12-03T10:50:59.489Z,15.60
2022-12-03T10:53:29.905Z,13.68
2022-12-03T10:55:59.773Z,13.57
2022-12-03T10:58:34.134Z,13.95
2022-12-03T11:01:06.399Z,11.13
2022-12-03T11:03:37.053Z,12.30
2022-12-03T11:06:04.071Z,9.82
2022-12-03T11:08:35.797Z,13.40
2022-12-03T11:11:04.820Z,10.25
2022-12-03T11:13:35.838Z,16.88
2022-12-03T11:16:05.672Z,16.25
2022-12-03T11:18:38.643Z,11.25
2022-12-03T11:21:14.518Z,9.48
2022-12-03T11:23:44.300Z,16.85
2022-12-03T11:26:37.283Z,17.10
2022-12-03T11:29:13.131Z,10.85
2022-12-03T11:31:47.592Z,12.98
2022-12-03T11:34:20.623Z,10.82
2022-12-03T11:37:12.446Z,12.50
2022-12-03T11:39:47.999Z,11.23
2022-12-03T11:42:26.754Z,13.98
2022-12-03T11:45:02.747Z,16.05
2022-12-03T11:47:32.966Z,20.10
2022-12-03T11:50:00.826Z,13.93
2022-12-03T11:52:38.579Z,21.77
2022-12-03T11:55:17.828Z,11.55
2022-12-03T11:57:45.330Z,8.95
2022-12-03T12:00:21.868Z,14.68
2022-12-03T12:02:50.301Z,15.20
2022-12-03T12:05:22.301Z,16.92
2022-12-03T12:07:50.252Z,16.45
2022-12-03T12:10:46.816Z,16.02
2022-12-03T12:13:31.825Z,17.58
2022-12-03T12:16:00.402Z,20.48
2022-12-03T12:18:42.238Z,18.02
2022-12-03T12:21:43.115Z,19.42
2022-12-03T12:24:41.274Z,14.93
2022-12-03T12:27:10.712Z,24.38
2022-12-03T12:29:39.352Z,17.17
2022-12-03T12:32:09.286Z,19.60
2022-12-03T12:34:44.726Z,25.58
2022-12-03T12:37:21.685Z,28.98
2022-12-03T12:39:54.478Z,45.40
2022-12-03T12:42:29.414Z,45.30
2022-12-03T12:45:14.460Z,35.33
2022-12-03T12:48:15.446Z,24.95
2022-12-03T12:50:46.187Z,26.42
2022-12-03T12:53:25.083Z,26.42
2022-12-03T12:56:06.712Z,33.50
2022-12-03T12:58:34.445Z,33.17
2022-12-03T13:01:17.952Z,25.50
2022-12-03T13:03:44.981Z,30.75
2022-12-03T13:06:16.204Z,30.38
2022-12-03T13:08:45.588Z,25.05
2022-12-03T13:11:38.841Z,22.88
2022-12-03T13:14:23.583Z,25.48
2022-12-03T13:16:52.460Z,26.02
2022-12-03T13:19:28.576Z,20.63
2022-12-03T13:21:58.043Z,14.02
2022-12-03T13:24:41.335Z,21.73
2022-12-03T13:27:17.517Z,20.98
2022-12-03T13:29:45.119Z,23.98
2022-12-03T13:32:19.707Z,22.25
2022-12-03T13:34:47.545Z,22.23
2022-12-03T13:37:18.805Z,20.73
2022-12-03T13:39:50.454Z,17.83
2022-12-03T13:42:46.098Z,17.08
2022-12-03T13:45:15.684Z,19.48
2022-12-03T13:48:00.743Z,22.02
2022-12-03T13:50:38.727Z,19.90
2022-12-03T13:53:11.352Z,22.77
2022-12-03T13:55:42.891Z,23.42
2022-12-03T13:58:09.784Z,25.67
2022-12-03T14:00:36.622Z,25.58
2022-12-03T14:03:03.713Z,28.05
2022-12-03T14:05:30.680Z,24.65
2022-12-03T14:08:02.365Z,24.42
2022-12-03T14:10:29.757Z,33.50
2022-12-03T14:12:57.161Z,20.67
2022-12-03T14:15:25.048Z,29.75
2022-12-03T14:17:52.010Z,27.48
2022-12-03T14:20:19.310Z,28.73
2022-12-03T14:22:46.200Z,27.08
2022-12-03T14:25:13.117Z,31.27
2022-12-03T14:27:39.963Z,26.55
2022-12-03T14:30:07.534Z,29.48
2022-12-03T14:32:34.246Z,18.90
2022-12-03T14:35:05.131Z,19.25
2022-12-03T14:37:35.347Z,21.33
2022-12-03T14:40:03.840Z,19.92
2022-12-03T14:42:30.914Z,24.17
2022-12-03T14:44:57.824Z,23.00
2022-12-03T14:47:24.698Z,20.85
2022-12-03T14:49:52.772Z,23.48
2022-12-03T14:52:20.561Z,26.67
2022-12-03T14:54:47.271Z,26.48
2022-12-03T14:57:15.563Z,26.00
2022-12-03T14:59:43.692Z,24.33
2022-12-03T15:02:11.869Z,32.65
2022-12-03T15:04:39.941Z,30.17
2022-12-03T15:07:07.108Z,31.38
2022-12-03T15:09:34.011Z,28.73
2022-12-03T15:12:02.753Z,33.58
2022-12-03T15:14:29.567Z,25.50
2022-12-03T15:16:56.497Z,25.33
2022-12-03T15:19:23.271Z,24.88
2022-12-03T15:21:50.125Z,26.63
2022-12-03T15:24:17.151Z,21.35
2022-12-03T15:26:48.740Z,25.63
2022-12-03T15:29:19.665Z,22.75
2022-12-03T15:31:46.530Z,22.05
2022-12-03T15:34:17.364Z,24.98
2022-12-03T15:36:48.336Z,21.73
2022-12-03T15:39:15.063Z,20.85
2022-12-03T15:41:41.926Z,30.10
2022-12-03T15:44:09.221Z,20.13
2022-12-03T15:46:36.528Z,30.55
2022-12-03T15:49:03.409Z,29.63
2022-12-03T15:51:30.334Z,32.17
2022-12-03T15:53:57.230Z,24.33
2022-12-03T15:56:24.162Z,27.42
2022-12-03T15:58:51.151Z,26.25
2022-12-03T16:01:18.470Z,22.48
2022-12-03T16:03:45.427Z,31.60
2022-12-03T16:06:12.779Z,47.80
2022-12-03T16:08:39.521Z,57.40
2022-12-03T16:11:06.485Z,48.45
2022-12-03T16:13:33.479Z,43.03
2022-12-03T16:16:00.531Z,33.55
2022-12-03T16:18:27.485Z,28.60
2022-12-03T16:20:54.545Z,21.50
2022-12-03T16:23:21.468Z,25.63
2022-12-03T16:25:48.562Z,24.25
2022-12-03T16:28:15.663Z,32.10
2022-12-03T16:30:42.854Z,44.53
2022-12-03T16:33:09.823Z,45.65
2022-12-03T16:35:38.291Z,66.00
2022-12-03T16:38:05.354Z,69.90
2022-12-03T16:40:32.270Z,53.65
2022-12-03T16:42:59.330Z,41.88
2022-12-03T16:45:29.256Z,42.42
2022-12-03T16:47:56.178Z,36.30
2022-12-03T16:50:29.555Z,53.70
2022-12-03T16:52:57.650Z,50.47
2022-12-03T16:55:24.784Z,50.67
2022-12-03T16:57:51.668Z,44.70
2022-12-03T17:00:21.736Z,48.25
2022-12-03T17:02:48.987Z,41.28
2022-12-03T17:05:15.915Z,46.60
2022-12-03T17:07:42.766Z,36.22
2022-12-03T17:10:10.347Z,27.02
2022-12-03T17:13:07.203Z,36.47
2022-12-03T17:15:25.425Z,18.00
2022-12-03T17:17:53.311Z,22.23
2022-12-03T17:20:20.212Z,25.55
2022-12-03T17:22:47.369Z,21.10
2022-12-03T17:25:15.562Z,18.95
2022-12-03T17:27:45.402Z,16.90
2022-12-03T17:30:13.514Z,28.13
2022-12-03T17:32:40.569Z,43.45
2022-12-03T17:35:08.323Z,29.42
2022-12-03T17:37:35.371Z,36.85
2022-12-03T17:40:02.748Z,39.13
2022-12-03T17:42:29.553Z,64.05
2022-12-03T17:44:56.461Z,67.25
2022-12-03T17:47:24.484Z,53.78
2022-12-03T17:49:51.647Z,40.40
2022-12-03T17:52:19.000Z,32.67
2022-12-03T17:55:10.019Z,39.65
2022-12-03T17:57:33.887Z,46.95
2022-12-03T18:00:01.521Z,46.38
2022-12-03T18:02:39.434Z,35.53
2022-12-03T18:05:06.579Z,32.55
2022-12-03T18:07:34.122Z,45.00
2022-12-03T18:10:01.239Z,33.90
2022-12-03T18:12:28.024Z,32.25
2022-12-03T18:14:54.872Z,35.90
2022-12-03T18:17:21.659Z,37.97
2022-12-03T18:19:48.515Z,36.97
2022-12-03T18:22:15.524Z,24.85
2022-12-03T18:24:45.022Z,21.92
2022-12-03T18:27:13.305Z,33.60
2022-12-03T18:29:40.146Z,33.13
2022-12-03T18:32:27.168Z,27.80
2022-12-03T18:34:55.599Z,23.63
2022-12-03T18:37:26.183Z,21.92
2022-12-03T18:39:53.734Z,32.90
2022-12-03T18:42:23.564Z,30.98
2022-12-03T18:44:53.783Z,33.67
2022-12-03T18:47:23.593Z,40.38
2022-12-03T18:49:53.958Z,30.17
2022-12-03T18:52:25.420Z,37.67
2022-12-03T18:54:56.501Z,54.42
2022-12-03T18:59:50.072Z,53.65
2022-12-03T19:05:08.560Z,41.83
2022-12-03T19:07:35.569Z,25.92
2022-12-03T19:10:03.174Z,31.70
2022-12-03T19:12:31.194Z,38.28
2022-12-03T19:14:58.252Z,33.95
2022-12-03T19:17:27.192Z,28.05
2022-12-03T19:19:54.980Z,43.35
2022-12-03T19:22:24.596Z,33.88
2022-12-03T19:24:51.584Z,31.85
2022-12-03T19:27:19.039Z,28.02
2022-12-03T19:29:48.817Z,32.22
2022-12-03T19:32:15.891Z,44.00
2022-12-03T19:34:42.808Z,47.38
2022-12-03T19:37:09.801Z,49.30
2022-12-03T19:39:36.873Z,53.78
2022-12-03T19:42:03.849Z,55.85
2022-12-03T19:44:30.849Z,56.45
2022-12-03T19:46:57.664Z,56.03
2022-12-03T19:49:25.837Z,37.67
2022-12-03T19:51:53.012Z,37.85
2022-12-03T19:54:20.003Z,49.97
2022-12-03T19:56:46.779Z,45.13
2022-12-03T19:59:14.574Z,53.45
2022-12-03T20:01:43.147Z,45.58
2022-12-03T20:04:12.060Z,61.42
2022-12-03T20:06:39.625Z,66.50
2022-12-03T20:09:16.601Z,44.30
2022-12-03T20:11:44.654Z,45.47
2022-12-03T20:14:16.423Z,40.90
2022-12-03T20:16:44.655Z,33.90
2022-12-03T20:19:13.761Z,23.85
2022-12-03T20:21:41.622Z,23.83
2022-12-03T20:24:10.291Z,26.85
2022-12-03T20:26:37.133Z,29.10
2022-12-03T20:29:04.103Z,20.35
2022-12-03T20:31:32.064Z,96.85
2022-12-03T20:34:01.492Z,58.28
2022-12-03T20:36:29.925Z,49.47
2022-12-03T20:38:58.210Z,54.35
2022-12-03T20:41:25.459Z,66.95
2022-12-03T20:43:53.616Z,54.33
2022-12-03T20:46:29.376Z,45.25
2022-12-03T20:48:56.971Z,46.10
2022-12-03T20:51:26.000Z,38.45
2022-12-03T20:53:52.864Z,39.53
2022-12-03T20:56:26.916Z,44.15
2022-12-03T20:58:54.463Z,39.65
2022-12-03T21:01:24.403Z,30.40
2022-12-03T21:03:53.191Z,24.92
2022-12-03T21:06:21.341Z,21.08
2022-12-03T21:08:48.860Z,16.00
2022-12-03T21:11:21.741Z,23.23
2022-12-03T21:13:48.754Z,19.80
2022-12-03T21:16:39.500Z,17.65
2022-12-03T21:19:08.348Z,21.85
2022-12-03T21:21:35.632Z,32.25
2022-12-03T21:24:02.594Z,17.75
2022-12-03T21:26:29.531Z,9.75
2022-12-03T21:28:56.474Z,11.45
2022-12-03T21:31:25.893Z,16.95
2022-12-03T21:33:54.312Z,27.00
2022-12-03T21:36:21.411Z,24.77
2022-12-03T21:38:48.674Z,14.77
2022-12-03T21:41:15.690Z,12.60
2022-12-03T21:43:43.510Z,15.77
2022-12-03T21:47:08.407Z,12.30
2022-12-03T21:49:01.788Z,18.35
2022-12-03T21:51:28.620Z,24.63
2022-12-03T21:53:55.646Z,21.60
2022-12-03T21:56:22.503Z,28.55
2022-12-03T21:58:49.586Z,34.25
2022-12-03T22:01:24.340Z,31.63
2022-12-03T22:03:51.724Z,34.63
2022-12-03T22:06:19.300Z,23.80
2022-12-03T22:08:46.911Z,28.45
2022-12-03T22:11:16.996Z,21.70
2022-12-03T22:13:44.553Z,21.38
2022-12-03T22:16:14.014Z,24.13
2022-12-03T22:18:41.840Z,22.05
2022-12-03T22:21:11.905Z,24.70
2022-12-03T22:23:39.082Z,19.95
2022-12-03T22:26:09.135Z,21.20
2022-12-03T22:28:36.026Z,21.25
2022-12-03T22:31:07.424Z,15.77
2022-12-03T22:33:35.107Z,7.85
2022-12-03T22:36:05.141Z,4.43
2022-12-03T22:38:32.589Z,4.70
2022-12-03T22:40:59.852Z,4.65
2022-12-03T22:43:26.764Z,3.95
2022-12-03T22:45:55.470Z,1.67
2022-12-03T22:48:23.653Z,3.88
2022-12-03T22:50:51.792Z,5.07
2022-12-03T22:53:19.685Z,5.15
2022-12-03T22:55:58.721Z,4.25
2022-12-03T22:58:26.853Z,2.90
2022-12-03T23:00:59.776Z,5.65
2022-12-03T23:03:29.767Z,7.20
2022-12-03T23:05:56.967Z,7.22
2022-12-03T23:08:23.962Z,7.40
2022-12-03T23:10:52.826Z,5.82
2022-12-03T23:13:20.923Z,7.88
2022-12-03T23:15:50.140Z,7.38
2022-12-03T23:18:18.194Z,9.07
2022-12-03T23:20:47.148Z,14.35
2022-12-03T23:23:15.083Z,12.07
2022-12-03T23:25:42.328Z,10.32
2022-12-03T23:28:10.213Z,8.75
2022-12-03T23:30:39.434Z,8.07
2022-12-03T23:33:06.766Z,10.23
2022-12-03T23:35:34.093Z,6.82
2022-12-03T23:38:00.881Z,14.73
2022-12-03T23:40:27.769Z,10.85
2022-12-03T23:42:55.126Z,10.82
2022-12-03T23:45:21.955Z,10.18
2022-12-03T23:47:50.459Z,11.68
2022-12-03T23:50:20.528Z,9.65
2022-12-03T23:52:47.231Z,14.13
2022-12-03T23:55:14.044Z,9.23
2022-12-03T23:57:41.119Z,10.57
